sensor_id;sensor_type;location;lat;lon;timestamp;temperature;humidity
10468;DHT22;5281;48.878;9.394;2023-12-29T00:01:55;11.60;99.90
10468;DHT22;5281;48.878;9.394;2023-12-29T00:04:24;11.60;99.90
10468;DHT22;5281;48.878;9.394;2023-12-29T00:06:50;11.60;99.90
10468;DHT22;5281;48.878;9.394;2023-12-29T00:09:17;11.60;99.90
10468;DHT22;5281;48.878;9.394;2023-12-29T00:11:45;11.60;99.90
10468;DHT22;5281;48.878;9.394;2023-12-29T00:14:12;11.60;99.90
10468;DHT22;5281;48.878;9.394;2023-12-29T00:16:39;11.60;99.90
10468;DHT22;5281;48.878;9.394;2023-12-29T00:19:05;11.70;99.90
10468;DHT22;5281;48.878;9.394;2023-12-29T00:21:33;11.70;99.90
10468;DHT22;5281;48.878;9.394;2023-12-29T00:24:00;11.70;99.90
10468;DHT22;5281;48.878;9.394;2023-12-29T00:26:27;11.80;99.90
10468;DHT22;5281;48.878;9.394;2023-12-29T00:28:54;11.80;99.90
10468;DHT22;5281;48.878;9.394;2023-12-29T00:31:20;11.80;99.90
10468;DHT22;5281;48.878;9.394;2023-12-29T00:33:47;11.80;99.90
10468;DHT22;5281;48.878;9.394;2023-12-29T00:36:17;11.90;99.90
10468;DHT22;5281;48.878;9.394;2023-12-29T00:38:46;11.90;99.90
10468;DHT22;5281;48.878;9.394;2023-12-29T00:41:13;11.90;99.90
10468;DHT22;5281;48.878;9.394;2023-12-29T00:43:39;11.90;99.90
10468;DHT22;5281;48.878;9.394;2023-12-29T00:46:06;11.90;99.90
10468;DHT22;5281;48.878;9.394;2023-12-29T00:48:34;12.00;99.90
10468;DHT22;5281;48.878;9.394;2023-12-29T00:51:01;12.10;99.90
10468;DHT22;5281;48.878;9.394;2023-12-29T00:53:28;12.10;99.90
10468;DHT22;5281;48.878;9.394;2023-12-29T00:55:56;12.20;99.90
10468;DHT22;5281;48.878;9.394;2023-12-29T00:58:22;12.30;99.90
10468;DHT22;5281;48.878;9.394;2023-12-29T01:00:49;12.30;99.90
10468;DHT22;5281;48.878;9.394;2023-12-29T01:03:16;12.40;99.90
10468;DHT22;5281;48.878;9.394;2023-12-29T01:05:43;12.40;99.90
10468;DHT22;5281;48.878;9.394;2023-12-29T01:08:09;12.50;99.90
10468;DHT22;5281;48.878;9.394;2023-12-29T01:10:37;12.50;99.90
10468;DHT22;5281;48.878;9.394;2023-12-29T01:13:05;12.50;99.90
10468;DHT22;5281;48.878;9.394;2023-12-29T01:15:31;12.60;99.90
10468;DHT22;5281;48.878;9.394;2023-12-29T01:17:58;12.60;99.90
10468;DHT22;5281;48.878;9.394;2023-12-29T01:20:25;12.70;99.90
10468;DHT22;5281;48.878;9.394;2023-12-29T01:22:52;12.70;99.90
10468;DHT22;5281;48.878;9.394;2023-12-29T01:25:18;12.70;99.90
10468;DHT22;5281;48.878;9.394;2023-12-29T01:27:45;12.50;99.90
10468;DHT22;5281;48.878;9.394;2023-12-29T01:30:13;12.40;99.90
10468;DHT22;5281;48.878;9.394;2023-12-29T01:32:40;12.30;99.90
10468;DHT22;5281;48.878;9.394;2023-12-29T01:35:07;12.20;99.90
10468;DHT22;5281;48.878;9.394;2023-12-29T01:37:34;12.20;99.90
10468;DHT22;5281;48.878;9.394;2023-12-29T01:40:01;12.10;99.90
10468;DHT22;5281;48.878;9.394;2023-12-29T01:42:27;12.10;99.90
10468;DHT22;5281;48.878;9.394;2023-12-29T01:44:54;12.20;99.90
10468;DHT22;5281;48.878;9.394;2023-12-29T01:47:22;12.20;99.90
10468;DHT22;5281;48.878;9.394;2023-12-29T01:49:49;12.20;99.90
10468;DHT22;5281;48.878;9.394;2023-12-29T01:52:17;12.20;99.90
10468;DHT22;5281;48.878;9.394;2023-12-29T01:54:46;12.30;99.90
10468;DHT22;5281;48.878;9.394;2023-12-29T01:57:14;12.30;99.90
10468;DHT22;5281;48.878;9.394;2023-12-29T01:59:41;12.30;99.90
10468;DHT22;5281;48.878;9.394;2023-12-29T02:02:10;12.30;99.90
10468;DHT22;5281;48.878;9.394;2023-12-29T02:04:40;12.30;99.90
10468;DHT22;5281;48.878;9.394;2023-12-29T02:07:07;12.30;99.90
10468;DHT22;5281;48.878;9.394;2023-12-29T02:09:34;12.40;99.90
10468;DHT22;5281;48.878;9.394;2023-12-29T02:12:02;12.40;99.90
10468;DHT22;5281;48.878;9.394;2023-12-29T02:14:29;12.40;99.90
10468;DHT22;5281;48.878;9.394;2023-12-29T02:17:01;12.30;99.90
10468;DHT22;5281;48.878;9.394;2023-12-29T02:19:39;12.30;99.90
10468;DHT22;5281;48.878;9.394;2023-12-29T02:22:06;12.40;99.90
10468;DHT22;5281;48.878;9.394;2023-12-29T02:24:34;12.40;99.90
10468;DHT22;5281;48.878;9.394;2023-12-29T02:27:07;12.40;99.90
10468;DHT22;5281;48.878;9.394;2023-12-29T02:29:38;12.30;99.90
10468;DHT22;5281;48.878;9.394;2023-12-29T02:32:10;12.30;99.90
10468;DHT22;5281;48.878;9.394;2023-12-29T02:34:38;12.40;99.90
10468;DHT22;5281;48.878;9.394;2023-12-29T02:37:07;12.50;99.90
10468;DHT22;5281;48.878;9.394;2023-12-29T02:39:35;12.40;99.90
10468;DHT22;5281;48.878;9.394;2023-12-29T02:42:02;12.40;99.90
10468;DHT22;5281;48.878;9.394;2023-12-29T02:44:30;12.40;99.90
10468;DHT22;5281;48.878;9.394;2023-12-29T02:46:56;12.30;99.90
10468;DHT22;5281;48.878;9.394;2023-12-29T02:49:26;12.40;99.90
10468;DHT22;5281;48.878;9.394;2023-12-29T02:51:52;12.40;99.90
10468;DHT22;5281;48.878;9.394;2023-12-29T02:54:19;12.40;99.90
10468;DHT22;5281;48.878;9.394;2023-12-29T02:56:46;12.40;99.90
10468;DHT22;5281;48.878;9.394;2023-12-29T02:59:12;12.50;99.90
10468;DHT22;5281;48.878;9.394;2023-12-29T03:01:40;12.50;99.90
10468;DHT22;5281;48.878;9.394;2023-12-29T03:04:07;12.50;99.90
10468;DHT22;5281;48.878;9.394;2023-12-29T03:06:34;12.60;99.90
10468;DHT22;5281;48.878;9.394;2023-12-29T03:09:01;12.70;99.90
10468;DHT22;5281;48.878;9.394;2023-12-29T03:11:27;12.70;99.90
10468;DHT22;5281;48.878;9.394;2023-12-29T03:13:54;12.70;99.90
10468;DHT22;5281;48.878;9.394;2023-12-29T03:16:21;12.60;99.90
10468;DHT22;5281;48.878;9.394;2023-12-29T03:18:49;12.50;99.90
10468;DHT22;5281;48.878;9.394;2023-12-29T03:21:15;12.40;99.90
10468;DHT22;5281;48.878;9.394;2023-12-29T03:23:42;12.30;99.90
10468;DHT22;5281;48.878;9.394;2023-12-29T03:26:09;12.30;99.90
10468;DHT22;5281;48.878;9.394;2023-12-29T03:28:36;12.30;99.90
10468;DHT22;5281;48.878;9.394;2023-12-29T03:31:02;12.20;99.90
10468;DHT22;5281;48.878;9.394;2023-12-29T03:33:30;12.20;99.90
10468;DHT22;5281;48.878;9.394;2023-12-29T03:35:58;12.30;99.90
10468;DHT22;5281;48.878;9.394;2023-12-29T03:38:24;12.30;99.90
10468;DHT22;5281;48.878;9.394;2023-12-29T03:40:51;12.30;99.90
10468;DHT22;5281;48.878;9.394;2023-12-29T03:43:18;12.30;99.90
10468;DHT22;5281;48.878;9.394;2023-12-29T03:45:44;12.40;99.90
10468;DHT22;5281;48.878;9.394;2023-12-29T03:48:11;12.40;99.90
10468;DHT22;5281;48.878;9.394;2023-12-29T03:50:38;12.40;99.90
10468;DHT22;5281;48.878;9.394;2023-12-29T03:53:06;12.40;99.90
10468;DHT22;5281;48.878;9.394;2023-12-29T03:55:33;12.40;99.90
10468;DHT22;5281;48.878;9.394;2023-12-29T03:57:59;12.20;99.90
10468;DHT22;5281;48.878;9.394;2023-12-29T04:00:27;12.20;99.90
10468;DHT22;5281;48.878;9.394;2023-12-29T04:02:54;12.10;99.90
10468;DHT22;5281;48.878;9.394;2023-12-29T04:05:21;12.10;99.90
10468;DHT22;5281;48.878;9.394;2023-12-29T04:07:47;12.10;99.90
10468;DHT22;5281;48.878;9.394;2023-12-29T04:10:16;12.20;99.90
10468;DHT22;5281;48.878;9.394;2023-12-29T04:12:42;12.20;99.90
10468;DHT22;5281;48.878;9.394;2023-12-29T04:15:09;12.30;99.90
10468;DHT22;5281;48.878;9.394;2023-12-29T04:17:36;12.20;99.90
10468;DHT22;5281;48.878;9.394;2023-12-29T04:20:03;12.20;99.90
10468;DHT22;5281;48.878;9.394;2023-12-29T04:22:30;12.20;99.90
10468;DHT22;5281;48.878;9.394;2023-12-29T04:24:57;12.20;99.90
10468;DHT22;5281;48.878;9.394;2023-12-29T04:27:25;12.00;99.90
10468;DHT22;5281;48.878;9.394;2023-12-29T04:29:51;12.00;99.90
10468;DHT22;5281;48.878;9.394;2023-12-29T04:32:18;11.90;99.90
10468;DHT22;5281;48.878;9.394;2023-12-29T04:34:44;11.80;99.90
10468;DHT22;5281;48.878;9.394;2023-12-29T04:37:11;11.80;99.90
10468;DHT22;5281;48.878;9.394;2023-12-29T04:39:38;11.80;99.90
10468;DHT22;5281;48.878;9.394;2023-12-29T04:42:05;11.70;99.90
10468;DHT22;5281;48.878;9.394;2023-12-29T04:44:34;11.80;99.90
10468;DHT22;5281;48.878;9.394;2023-12-29T04:47:00;11.80;99.90
10468;DHT22;5281;48.878;9.394;2023-12-29T04:49:27;11.80;99.90
10468;DHT22;5281;48.878;9.394;2023-12-29T04:51:53;11.80;99.90
10468;DHT22;5281;48.878;9.394;2023-12-29T04:54:20;11.50;99.90
10468;DHT22;5281;48.878;9.394;2023-12-29T04:56:47;11.90;99.90
10468;DHT22;5281;48.878;9.394;2023-12-29T04:59:13;12.00;99.90
10468;DHT22;5281;48.878;9.394;2023-12-29T05:01:41;12.00;99.90
10468;DHT22;5281;48.878;9.394;2023-12-29T05:04:08;12.10;99.90
10468;DHT22;5281;48.878;9.394;2023-12-29T05:06:35;12.10;99.90
10468;DHT22;5281;48.878;9.394;2023-12-29T05:09:01;12.00;99.90
10468;DHT22;5281;48.878;9.394;2023-12-29T05:11:30;12.00;99.90
10468;DHT22;5281;48.878;9.394;2023-12-29T05:13:58;12.00;99.90
10468;DHT22;5281;48.878;9.394;2023-12-29T05:16:24;12.10;99.90
10468;DHT22;5281;48.878;9.394;2023-12-29T05:18:52;12.10;99.90
10468;DHT22;5281;48.878;9.394;2023-12-29T05:21:19;12.10;99.90
10468;DHT22;5281;48.878;9.394;2023-12-29T05:23:46;12.20;99.90
10468;DHT22;5281;48.878;9.394;2023-12-29T05:26:14;12.20;99.90
10468;DHT22;5281;48.878;9.394;2023-12-29T05:28:40;12.30;99.90
10468;DHT22;5281;48.878;9.394;2023-12-29T05:31:08;12.30;99.90
10468;DHT22;5281;48.878;9.394;2023-12-29T05:33:34;12.40;99.90
10468;DHT22;5281;48.878;9.394;2023-12-29T05:36:07;12.40;99.90
10468;DHT22;5281;48.878;9.394;2023-12-29T05:38:35;12.40;99.90
10468;DHT22;5281;48.878;9.394;2023-12-29T05:41:02;12.40;99.90
10468;DHT22;5281;48.878;9.394;2023-12-29T05:43:30;12.50;99.90
10468;DHT22;5281;48.878;9.394;2023-12-29T05:45:57;12.40;99.90
10468;DHT22;5281;48.878;9.394;2023-12-29T05:48:24;12.30;99.90
10468;DHT22;5281;48.878;9.394;2023-12-29T05:50:51;12.20;99.90
10468;DHT22;5281;48.878;9.394;2023-12-29T05:53:19;12.20;99.90
10468;DHT22;5281;48.878;9.394;2023-12-29T05:55:46;12.20;99.90
10468;DHT22;5281;48.878;9.394;2023-12-29T05:58:12;12.10;99.90
10468;DHT22;5281;48.878;9.394;2023-12-29T06:00:39;12.10;99.90
10468;DHT22;5281;48.878;9.394;2023-12-29T06:03:06;12.10;99.90
10468;DHT22;5281;48.878;9.394;2023-12-29T06:05:33;11.90;99.90
10468;DHT22;5281;48.878;9.394;2023-12-29T06:07:59;11.90;99.90
10468;DHT22;5281;48.878;9.394;2023-12-29T06:10:27;11.90;99.90
10468;DHT22;5281;48.878;9.394;2023-12-29T06:12:54;11.90;99.90
10468;DHT22;5281;48.878;9.394;2023-12-29T06:15:21;11.90;99.90
10468;DHT22;5281;48.878;9.394;2023-12-29T06:17:47;11.90;99.90
10468;DHT22;5281;48.878;9.394;2023-12-29T06:20:14;11.80;99.90
10468;DHT22;5281;48.878;9.394;2023-12-29T06:22:41;11.80;99.90
10468;DHT22;5281;48.878;9.394;2023-12-29T06:25:09;11.70;99.90
10468;DHT22;5281;48.878;9.394;2023-12-29T06:27:37;11.70;99.90
10468;DHT22;5281;48.878;9.394;2023-12-29T06:30:06;11.60;99.90
10468;DHT22;5281;48.878;9.394;2023-12-29T06:32:33;11.50;99.90
10468;DHT22;5281;48.878;9.394;2023-12-29T06:35:00;11.40;99.90
10468;DHT22;5281;48.878;9.394;2023-12-29T06:37:27;11.30;99.90
10468;DHT22;5281;48.878;9.394;2023-12-29T06:39:53;11.20;99.90
10468;DHT22;5281;48.878;9.394;2023-12-29T06:42:20;11.10;99.90
10468;DHT22;5281;48.878;9.394;2023-12-29T06:44:49;11.00;99.90
10468;DHT22;5281;48.878;9.394;2023-12-29T06:47:16;10.90;99.90
10468;DHT22;5281;48.878;9.394;2023-12-29T06:49:42;10.80;99.90
10468;DHT22;5281;48.878;9.394;2023-12-29T06:52:09;10.80;99.90
10468;DHT22;5281;48.878;9.394;2023-12-29T06:54:36;10.70;99.90
10468;DHT22;5281;48.878;9.394;2023-12-29T06:57:03;10.70;99.90
10468;DHT22;5281;48.878;9.394;2023-12-29T06:59:29;10.60;99.90
10468;DHT22;5281;48.878;9.394;2023-12-29T07:01:57;10.50;99.90
10468;DHT22;5281;48.878;9.394;2023-12-29T07:04:24;10.50;99.90
10468;DHT22;5281;48.878;9.394;2023-12-29T07:06:51;10.30;99.90
10468;DHT22;5281;48.878;9.394;2023-12-29T07:09:17;10.40;99.90
10468;DHT22;5281;48.878;9.394;2023-12-29T07:11:47;10.40;99.90
10468;DHT22;5281;48.878;9.394;2023-12-29T07:14:14;10.40;99.90
10468;DHT22;5281;48.878;9.394;2023-12-29T07:16:41;10.50;99.90
10468;DHT22;5281;48.878;9.394;2023-12-29T07:19:09;10.60;99.90
10468;DHT22;5281;48.878;9.394;2023-12-29T07:21:35;10.80;99.90
10468;DHT22;5281;48.878;9.394;2023-12-29T07:24:02;10.90;99.90
10468;DHT22;5281;48.878;9.394;2023-12-29T07:26:29;11.00;99.90
10468;DHT22;5281;48.878;9.394;2023-12-29T07:28:56;11.10;99.90
10468;DHT22;5281;48.878;9.394;2023-12-29T07:31:22;11.20;99.90
10468;DHT22;5281;48.878;9.394;2023-12-29T07:33:49;11.30;99.90
10468;DHT22;5281;48.878;9.394;2023-12-29T07:36:17;11.30;99.90
10468;DHT22;5281;48.878;9.394;2023-12-29T07:38:44;11.50;99.90
10468;DHT22;5281;48.878;9.394;2023-12-29T07:41:11;11.60;99.90
10468;DHT22;5281;48.878;9.394;2023-12-29T07:43:38;11.60;99.90
10468;DHT22;5281;48.878;9.394;2023-12-29T07:46:04;11.60;99.90
10468;DHT22;5281;48.878;9.394;2023-12-29T07:48:31;11.60;99.90
10468;DHT22;5281;48.878;9.394;2023-12-29T07:50:59;11.60;99.90
10468;DHT22;5281;48.878;9.394;2023-12-29T07:53:31;11.70;99.90
10468;DHT22;5281;48.878;9.394;2023-12-29T07:55:58;11.80;99.90
10468;DHT22;5281;48.878;9.394;2023-12-29T07:58:25;11.90;99.90
10468;DHT22;5281;48.878;9.394;2023-12-29T08:00:52;12.00;99.90
10468;DHT22;5281;48.878;9.394;2023-12-29T08:03:18;12.10;99.90
10468;DHT22;5281;48.878;9.394;2023-12-29T08:05:45;12.20;99.90
10468;DHT22;5281;48.878;9.394;2023-12-29T08:08:12;12.20;99.90
10468;DHT22;5281;48.878;9.394;2023-12-29T08:10:40;12.30;99.90
10468;DHT22;5281;48.878;9.394;2023-12-29T08:13:07;12.40;99.90
10468;DHT22;5281;48.878;9.394;2023-12-29T08:15:34;12.50;99.90
10468;DHT22;5281;48.878;9.394;2023-12-29T08:18:01;12.50;99.90
10468;DHT22;5281;48.878;9.394;2023-12-29T08:20:27;12.60;99.90
10468;DHT22;5281;48.878;9.394;2023-12-29T08:22:54;12.60;99.90
10468;DHT22;5281;48.878;9.394;2023-12-29T08:25:22;12.60;99.90
10468;DHT22;5281;48.878;9.394;2023-12-29T08:27:50;12.60;99.90
10468;DHT22;5281;48.878;9.394;2023-12-29T08:30:17;12.60;99.90
10468;DHT22;5281;48.878;9.394;2023-12-29T08:32:43;12.50;99.90
10468;DHT22;5281;48.878;9.394;2023-12-29T08:35:10;12.60;99.90
10468;DHT22;5281;48.878;9.394;2023-12-29T08:37:37;12.60;99.90
10468;DHT22;5281;48.878;9.394;2023-12-29T08:40:03;12.60;99.90
10468;DHT22;5281;48.878;9.394;2023-12-29T08:42:30;12.60;99.90
10468;DHT22;5281;48.878;9.394;2023-12-29T08:44:59;12.60;99.90
10468;DHT22;5281;48.878;9.394;2023-12-29T08:47:26;12.60;99.90
10468;DHT22;5281;48.878;9.394;2023-12-29T08:49:53;12.60;99.90
10468;DHT22;5281;48.878;9.394;2023-12-29T08:52:20;12.60;99.90
10468;DHT22;5281;48.878;9.394;2023-12-29T08:54:47;12.60;99.90
10468;DHT22;5281;48.878;9.394;2023-12-29T08:57:14;12.60;99.90
10468;DHT22;5281;48.878;9.394;2023-12-29T08:59:40;12.70;99.90
10468;DHT22;5281;48.878;9.394;2023-12-29T09:02:09;12.70;99.90
10468;DHT22;5281;48.878;9.394;2023-12-29T09:04:35;12.70;99.90
10468;DHT22;5281;48.878;9.394;2023-12-29T09:07:02;12.70;99.90
10468;DHT22;5281;48.878;9.394;2023-12-29T09:09:30;12.80;99.90
10468;DHT22;5281;48.878;9.394;2023-12-29T09:11:57;12.90;99.90
10468;DHT22;5281;48.878;9.394;2023-12-29T09:14:24;12.90;99.90
10468;DHT22;5281;48.878;9.394;2023-12-29T09:16:50;12.90;99.90
10468;DHT22;5281;48.878;9.394;2023-12-29T09:19:19;12.80;99.90
10468;DHT22;5281;48.878;9.394;2023-12-29T09:21:45;12.70;99.90
10468;DHT22;5281;48.878;9.394;2023-12-29T09:24:12;12.80;99.90
10468;DHT22;5281;48.878;9.394;2023-12-29T09:26:39;12.90;99.90
10468;DHT22;5281;48.878;9.394;2023-12-29T09:29:06;13.00;99.90
10468;DHT22;5281;48.878;9.394;2023-12-29T09:31:33;13.10;99.90
10468;DHT22;5281;48.878;9.394;2023-12-29T09:33:59;13.20;99.90
10468;DHT22;5281;48.878;9.394;2023-12-29T09:36:28;13.40;99.90
10468;DHT22;5281;48.878;9.394;2023-12-29T09:38:54;13.50;99.90
10468;DHT22;5281;48.878;9.394;2023-12-29T09:41:23;13.60;99.90
10468;DHT22;5281;48.878;9.394;2023-12-29T09:43:51;13.70;99.90
10468;DHT22;5281;48.878;9.394;2023-12-29T09:46:19;13.80;99.90
10468;DHT22;5281;48.878;9.394;2023-12-29T09:48:51;13.90;99.90
10468;DHT22;5281;48.878;9.394;2023-12-29T09:51:19;13.90;99.90
10468;DHT22;5281;48.878;9.394;2023-12-29T09:53:50;14.00;99.90
10468;DHT22;5281;48.878;9.394;2023-12-29T09:56:17;14.00;99.90
10468;DHT22;5281;48.878;9.394;2023-12-29T09:58:47;14.10;99.90
10468;DHT22;5281;48.878;9.394;2023-12-29T10:01:14;14.10;99.90
10468;DHT22;5281;48.878;9.394;2023-12-29T10:03:43;14.10;99.90
10468;DHT22;5281;48.878;9.394;2023-12-29T10:06:13;14.20;99.90
10468;DHT22;5281;48.878;9.394;2023-12-29T10:08:45;14.20;99.90
10468;DHT22;5281;48.878;9.394;2023-12-29T10:11:15;14.20;99.90
10468;DHT22;5281;48.878;9.394;2023-12-29T10:13:46;14.20;99.90
10468;DHT22;5281;48.878;9.394;2023-12-29T10:16:18;14.30;99.90
10468;DHT22;5281;48.878;9.394;2023-12-29T10:19:00;14.20;99.90
10468;DHT22;5281;48.878;9.394;2023-12-29T10:21:36;14.20;99.90
10468;DHT22;5281;48.878;9.394;2023-12-29T10:24:08;14.20;99.90
10468;DHT22;5281;48.878;9.394;2023-12-29T10:26:38;14.30;99.90
10468;DHT22;5281;48.878;9.394;2023-12-29T10:29:06;14.40;99.90
10468;DHT22;5281;48.878;9.394;2023-12-29T10:31:33;14.50;99.90
10468;DHT22;5281;48.878;9.394;2023-12-29T10:34:27;14.60;99.90
10468;DHT22;5281;48.878;9.394;2023-12-29T10:36:55;14.80;99.90
10468;DHT22;5281;48.878;9.394;2023-12-29T10:39:22;14.70;99.90
10468;DHT22;5281;48.878;9.394;2023-12-29T10:42:02;14.70;99.90
10468;DHT22;5281;48.878;9.394;2023-12-29T10:44:29;14.80;99.90
10468;DHT22;5281;48.878;9.394;2023-12-29T10:46:56;14.70;99.90
10468;DHT22;5281;48.878;9.394;2023-12-29T10:49:23;14.60;99.90
10468;DHT22;5281;48.878;9.394;2023-12-29T10:51:50;14.50;99.90
10468;DHT22;5281;48.878;9.394;2023-12-29T10:54:19;14.40;99.90
10468;DHT22;5281;48.878;9.394;2023-12-29T10:57:00;14.40;99.90
10468;DHT22;5281;48.878;9.394;2023-12-29T10:59:27;14.40;99.90
10468;DHT22;5281;48.878;9.394;2023-12-29T11:01:53;14.30;99.90
10468;DHT22;5281;48.878;9.394;2023-12-29T11:04:22;14.30;99.90
10468;DHT22;5281;48.878;9.394;2023-12-29T11:06:49;14.30;99.90
10468;DHT22;5281;48.878;9.394;2023-12-29T11:09:27;14.30;99.90
10468;DHT22;5281;48.878;9.394;2023-12-29T11:11:57;14.40;99.90
10468;DHT22;5281;48.878;9.394;2023-12-29T11:14:25;14.20;99.90
10468;DHT22;5281;48.878;9.394;2023-12-29T11:16:54;14.30;99.90
10468;DHT22;5281;48.878;9.394;2023-12-29T11:19:21;14.30;99.90
10468;DHT22;5281;48.878;9.394;2023-12-29T11:21:51;14.20;99.90
10468;DHT22;5281;48.878;9.394;2023-12-29T11:24:18;14.20;99.90
10468;DHT22;5281;48.878;9.394;2023-12-29T11:26:45;14.20;99.90
10468;DHT22;5281;48.878;9.394;2023-12-29T11:29:15;14.20;99.90
10468;DHT22;5281;48.878;9.394;2023-12-29T11:31:42;14.20;99.90
10468;DHT22;5281;48.878;9.394;2023-12-29T11:34:12;14.20;99.90
10468;DHT22;5281;48.878;9.394;2023-12-29T11:36:43;14.30;99.90
10468;DHT22;5281;48.878;9.394;2023-12-29T11:39:17;14.30;99.90
10468;DHT22;5281;48.878;9.394;2023-12-29T11:41:51;14.30;99.90
10468;DHT22;5281;48.878;9.394;2023-12-29T11:44:26;14.30;99.90
10468;DHT22;5281;48.878;9.394;2023-12-29T11:46:53;14.40;99.90
10468;DHT22;5281;48.878;9.394;2023-12-29T11:49:20;14.50;99.90
10468;DHT22;5281;48.878;9.394;2023-12-29T11:51:47;14.50;99.90
10468;DHT22;5281;48.878;9.394;2023-12-29T11:54:22;14.50;99.90
10468;DHT22;5281;48.878;9.394;2023-12-29T11:56:49;14.60;99.90
10468;DHT22;5281;48.878;9.394;2023-12-29T11:59:17;14.50;99.90
10468;DHT22;5281;48.878;9.394;2023-12-29T12:01:47;14.60;99.90
10468;DHT22;5281;48.878;9.394;2023-12-29T12:04:36;14.60;99.90
10468;DHT22;5281;48.878;9.394;2023-12-29T12:07:05;14.50;99.90
10468;DHT22;5281;48.878;9.394;2023-12-29T12:09:33;14.40;99.90
10468;DHT22;5281;48.878;9.394;2023-12-29T12:12:00;14.30;99.90
10468;DHT22;5281;48.878;9.394;2023-12-29T12:14:44;14.30;99.90
10468;DHT22;5281;48.878;9.394;2023-12-29T12:17:12;14.30;99.90
10468;DHT22;5281;48.878;9.394;2023-12-29T12:19:39;14.30;99.90
10468;DHT22;5281;48.878;9.394;2023-12-29T12:22:06;14.30;99.90
10468;DHT22;5281;48.878;9.394;2023-12-29T12:24:36;14.40;99.90
10468;DHT22;5281;48.878;9.394;2023-12-29T12:27:03;14.50;99.90
10468;DHT22;5281;48.878;9.394;2023-12-29T12:29:36;14.80;99.90
10468;DHT22;5281;48.878;9.394;2023-12-29T12:32:03;14.90;99.90
10468;DHT22;5281;48.878;9.394;2023-12-29T12:34:37;14.90;99.90
10468;DHT22;5281;48.878;9.394;2023-12-29T12:37:05;14.90;99.90
10468;DHT22;5281;48.878;9.394;2023-12-29T12:39:39;15.00;99.90
10468;DHT22;5281;48.878;9.394;2023-12-29T12:42:06;15.10;99.90
10468;DHT22;5281;48.878;9.394;2023-12-29T12:44:33;15.10;99.90
10468;DHT22;5281;48.878;9.394;2023-12-29T12:47:05;15.10;99.90
10468;DHT22;5281;48.878;9.394;2023-12-29T12:49:33;15.30;99.90
10468;DHT22;5281;48.878;9.394;2023-12-29T12:52:01;15.50;99.90
10468;DHT22;5281;48.878;9.394;2023-12-29T12:54:28;15.60;99.90
10468;DHT22;5281;48.878;9.394;2023-12-29T12:56:55;15.70;99.90
10468;DHT22;5281;48.878;9.394;2023-12-29T12:59:22;15.70;99.90
10468;DHT22;5281;48.878;9.394;2023-12-29T13:01:49;15.70;99.90
10468;DHT22;5281;48.878;9.394;2023-12-29T13:04:16;15.70;99.90
10468;DHT22;5281;48.878;9.394;2023-12-29T13:06:43;15.70;99.90
10468;DHT22;5281;48.878;9.394;2023-12-29T13:09:11;15.70;99.90
10468;DHT22;5281;48.878;9.394;2023-12-29T13:11:38;15.50;99.90
10468;DHT22;5281;48.878;9.394;2023-12-29T13:14:06;15.60;99.90
10468;DHT22;5281;48.878;9.394;2023-12-29T13:16:34;15.60;99.90
10468;DHT22;5281;48.878;9.394;2023-12-29T13:19:15;15.60;99.90
10468;DHT22;5281;48.878;9.394;2023-12-29T13:21:42;15.50;99.90
10468;DHT22;5281;48.878;9.394;2023-12-29T13:24:10;15.50;99.90
10468;DHT22;5281;48.878;9.394;2023-12-29T13:26:37;15.50;99.90
10468;DHT22;5281;48.878;9.394;2023-12-29T13:29:04;15.50;99.90
10468;DHT22;5281;48.878;9.394;2023-12-29T13:31:32;15.40;99.90
10468;DHT22;5281;48.878;9.394;2023-12-29T13:34:02;15.70;99.90
10468;DHT22;5281;48.878;9.394;2023-12-29T13:36:36;15.30;99.90
10468;DHT22;5281;48.878;9.394;2023-12-29T13:39:08;15.20;99.90
10468;DHT22;5281;48.878;9.394;2023-12-29T13:41:37;15.20;99.90
10468;DHT22;5281;48.878;9.394;2023-12-29T13:44:05;15.20;99.90
10468;DHT22;5281;48.878;9.394;2023-12-29T13:46:33;15.20;99.90
10468;DHT22;5281;48.878;9.394;2023-12-29T13:49:01;15.10;99.90
10468;DHT22;5281;48.878;9.394;2023-12-29T13:51:29;15.10;99.90
10468;DHT22;5281;48.878;9.394;2023-12-29T13:53:59;15.10;99.90
10468;DHT22;5281;48.878;9.394;2023-12-29T13:56:26;15.00;99.90
10468;DHT22;5281;48.878;9.394;2023-12-29T13:58:54;15.00;99.90
10468;DHT22;5281;48.878;9.394;2023-12-29T14:01:22;15.10;99.90
10468;DHT22;5281;48.878;9.394;2023-12-29T14:03:51;15.10;99.90
10468;DHT22;5281;48.878;9.394;2023-12-29T14:06:22;15.10;99.90
10468;DHT22;5281;48.878;9.394;2023-12-29T14:08:53;15.00;99.90
10468;DHT22;5281;48.878;9.394;2023-12-29T14:11:20;15.00;99.90
10468;DHT22;5281;48.878;9.394;2023-12-29T14:13:48;14.90;99.90
10468;DHT22;5281;48.878;9.394;2023-12-29T14:16:16;15.00;99.90
10468;DHT22;5281;48.878;9.394;2023-12-29T14:18:55;14.90;99.90
10468;DHT22;5281;48.878;9.394;2023-12-29T14:21:26;14.90;99.90
10468;DHT22;5281;48.878;9.394;2023-12-29T14:24:00;14.80;99.90
10468;DHT22;5281;48.878;9.394;2023-12-29T14:26:27;14.80;99.90
10468;DHT22;5281;48.878;9.394;2023-12-29T14:29:02;14.80;99.90
10468;DHT22;5281;48.878;9.394;2023-12-29T14:31:32;14.80;99.90
10468;DHT22;5281;48.878;9.394;2023-12-29T14:34:00;14.80;99.90
10468;DHT22;5281;48.878;9.394;2023-12-29T14:36:27;14.80;99.90
10468;DHT22;5281;48.878;9.394;2023-12-29T14:38:54;14.80;99.90
10468;DHT22;5281;48.878;9.394;2023-12-29T14:41:21;14.80;99.90
10468;DHT22;5281;48.878;9.394;2023-12-29T14:43:47;14.80;99.90
10468;DHT22;5281;48.878;9.394;2023-12-29T14:46:14;14.80;99.90
10468;DHT22;5281;48.878;9.394;2023-12-29T14:48:42;14.80;99.90
10468;DHT22;5281;48.878;9.394;2023-12-29T14:51:09;14.80;99.90
10468;DHT22;5281;48.878;9.394;2023-12-29T14:53:36;14.80;99.90
10468;DHT22;5281;48.878;9.394;2023-12-29T14:56:03;14.90;99.90
10468;DHT22;5281;48.878;9.394;2023-12-29T14:58:30;14.80;99.90
10468;DHT22;5281;48.878;9.394;2023-12-29T15:00:58;14.80;99.90
10468;DHT22;5281;48.878;9.394;2023-12-29T15:03:24;14.70;99.90
10468;DHT22;5281;48.878;9.394;2023-12-29T15:05:52;14.70;99.90
10468;DHT22;5281;48.878;9.394;2023-12-29T15:08:19;14.70;99.90
10468;DHT22;5281;48.878;9.394;2023-12-29T15:10:46;14.70;99.90
10468;DHT22;5281;48.878;9.394;2023-12-29T15:13:13;14.60;99.90
10468;DHT22;5281;48.878;9.394;2023-12-29T15:15:39;14.60;99.90
10468;DHT22;5281;48.878;9.394;2023-12-29T15:18:06;14.50;99.90
10468;DHT22;5281;48.878;9.394;2023-12-29T15:20:33;14.50;99.90
10468;DHT22;5281;48.878;9.394;2023-12-29T15:23:01;14.50;99.90
10468;DHT22;5281;48.878;9.394;2023-12-29T15:25:28;14.50;99.90
10468;DHT22;5281;48.878;9.394;2023-12-29T15:27:55;14.40;99.90
10468;DHT22;5281;48.878;9.394;2023-12-29T15:30:21;14.30;99.90
10468;DHT22;5281;48.878;9.394;2023-12-29T15:32:48;14.20;99.90
10468;DHT22;5281;48.878;9.394;2023-12-29T15:35:15;14.20;99.90
10468;DHT22;5281;48.878;9.394;2023-12-29T15:37:41;14.10;99.90
10468;DHT22;5281;48.878;9.394;2023-12-29T15:40:10;14.10;99.90
10468;DHT22;5281;48.878;9.394;2023-12-29T15:42:37;14.10;99.90
10468;DHT22;5281;48.878;9.394;2023-12-29T15:45:04;14.10;99.90
10468;DHT22;5281;48.878;9.394;2023-12-29T15:47:31;14.10;99.90
10468;DHT22;5281;48.878;9.394;2023-12-29T15:49:57;14.10;99.90